Time;durP1;ratioP1;P1;durP2;ratioP2;P2;SDS_P1;SDS_P2;PMS_P1;PMS_P2;Temp;Humidity;BMP_temperature;BMP_pressure;BME280_temperature;BME280_humidity;BME280_pressure;Samples;Min_cycle;Max_cycle;Signal;HPM_P1;HPM_P2
2022/03/03 00:00:41;;;;;;;0.20;0.10;;;;;;;-1.64;94.39;100704.03;4994280;28;20481;-50
2022/03/03 00:03:36;;;;;;;0.67;0.67;;;;;;;-1.57;94.99;100706.81;4992873;28;20841;-50
2022/03/03 00:06:03;;;;;;;1.10;1.10;;;;;;;-1.40;93.66;100709.88;4994101;28;20453;-50
2022/03/03 00:08:30;;;;;;;0.20;0.10;;;;;;;-1.42;93.05;100716.75;4994239;28;20473;-50
2022/03/03 00:10:57;;;;;;;0.20;0.10;;;;;;;-1.55;93.24;100707.75;4993793;28;20469;-51
2022/03/03 00:13:24;;;;;;;0.20;0.10;;;;;;;-1.83;94.11;100711.31;4994005;28;20449;-50
2022/03/03 00:15:50;;;;;;;0.20;0.10;;;;;;;-1.95;94.70;100710.97;4994129;28;20450;-50
2022/03/03 00:18:17;;;;;;;0.53;0.53;;;;;;;-1.86;94.25;100707.75;4994052;28;20516;-50
2022/03/03 00:20:43;;;;;;;0.20;0.10;;;;;;;-1.87;95.80;100714.69;4993852;28;21065;-50
2022/03/03 00:23:10;;;;;;;0.30;0.20;;;;;;;-1.87;95.13;100717.28;4993831;28;20900;-50
2022/03/03 00:25:37;;;;;;;0.20;0.10;;;;;;;-1.88;95.21;100712.91;4993956;28;20454;-50
2022/03/03 00:28:04;;;;;;;0.20;0.10;;;;;;;-2.13;95.50;100724.34;4993829;28;20870;-50
2022/03/03 00:30:31;;;;;;;0.20;0.10;;;;;;;-2.13;95.87;100718.25;4993813;28;20474;-50
2022/03/03 00:32:57;;;;;;;0.27;0.20;;;;;;;-2.16;95.97;100718.19;4992026;28;20446;-51
2022/03/03 00:35:25;;;;;;;0.70;0.70;;;;;;;-2.15;96.04;100722.53;4992459;28;20552;-50
2022/03/03 00:37:51;;;;;;;0.20;0.10;;;;;;;-2.05;95.49;100726.31;4993252;28;20890;-50
2022/03/03 00:40:19;;;;;;;0.20;0.10;;;;;;;-2.00;96.20;100725.59;4993009;28;20568;-50
2022/03/03 00:42:45;;;;;;;1.03;1.03;;;;;;;-2.25;97.06;100726.59;4993423;28;20500;-50
2022/03/03 00:45:12;;;;;;;0.20;0.10;;;;;;;-2.18;96.03;100720.75;4993560;28;20509;-50
2022/03/03 00:47:39;;;;;;;0.20;0.10;;;;;;;-2.17;95.99;100724.22;4993454;28;20450;-50
2022/03/03 00:50:06;;;;;;;0.20;0.10;;;;;;;-2.09;95.62;100725.31;4993133;28;20481;-50
2022/03/03 00:52:32;;;;;;;0.20;0.10;;;;;;;-2.06;94.71;100724.50;4993218;28;20445;-50
2022/03/03 00:54:59;;;;;;;2.57;2.37;;;;;;;-1.98;95.14;100729.13;4993407;28;20462;-50
2022/03/03 00:57:27;;;;;;;0.20;0.10;;;;;;;-2.14;95.63;100727.78;4993524;28;20456;-50
2022/03/03 00:59:53;;;;;;;0.20;0.10;;;;;;;-2.27;95.64;100729.97;4993382;28;20531;-50
2022/03/03 01:02:20;;;;;;;0.20;0.10;;;;;;;-2.27;95.50;100737.78;4993085;28;21037;-50
2022/03/03 01:04:47;;;;;;;0.20;0.20;;;;;;;-2.35;96.25;100734.06;4993190;28;20449;-51
2022/03/03 01:07:13;;;;;;;0.20;0.10;;;;;;;-2.40;96.95;100731.31;4993154;28;20453;-50
2022/03/03 01:09:40;;;;;;;0.20;0.10;;;;;;;-2.39;96.37;100728.78;4993058;28;21033;-50
2022/03/03 01:12:07;;;;;;;0.20;0.10;;;;;;;-2.58;97.02;100725.56;4993265;28;20507;-50
2022/03/03 01:14:34;;;;;;;0.20;0.10;;;;;;;-2.46;97.15;100718.16;4993391;28;20821;-49
2022/03/03 01:17:00;;;;;;;1.33;1.23;;;;;;;-2.39;95.92;100723.56;4980260;28;20454;-51
2022/03/03 01:19:27;;;;;;;0.20;0.20;;;;;;;-2.46;96.11;100720.75;4993091;28;21053;-50
2022/03/03 01:21:53;;;;;;;0.20;0.10;;;;;;;-2.48;96.40;100710.25;4992803;28;20489;-50
2022/03/03 01:24:20;;;;;;;0.20;0.10;;;;;;;-2.46;95.29;100712.94;4993026;28;20814;-50
2022/03/03 01:26:47;;;;;;;0.30;0.20;;;;;;;-2.65;96.36;100718.38;4993094;28;20457;-50
2022/03/03 01:29:13;;;;;;;0.40;0.40;;;;;;;-2.74;96.62;100708.56;4992674;28;20504;-50
2022/03/03 01:31:40;;;;;;;0.20;0.13;;;;;;;-2.73;96.99;100700.84;4979856;28;20449;-50
2022/03/03 01:34:07;;;;;;;0.20;0.10;;;;;;;-2.65;96.89;100697.59;4992678;28;20511;-50
2022/03/03 01:36:35;;;;;;;0.20;0.20;;;;;;;-2.79;97.23;100687.63;5001094;28;20499;-50
2022/03/03 01:39:03;;;;;;;1.27;1.27;;;;;;;-2.82;96.75;100684.94;4992693;28;20983;-51
2022/03/03 01:41:29;;;;;;;0.20;0.10;;;;;;;-2.75;97.72;100679.06;4992549;28;20461;-50
2022/03/03 01:43:56;;;;;;;0.20;0.10;;;;;;;-2.75;97.05;100691.19;4992689;28;20508;-50
2022/03/03 01:46:23;;;;;;;0.20;0.10;;;;;;;-2.72;97.13;100687.00;4992928;28;20453;-51
2022/03/03 01:48:50;;;;;;;0.20;0.10;;;;;;;-2.90;97.33;100694.19;4992353;28;20547;-50
2022/03/03 01:51:16;;;;;;;0.20;0.20;;;;;;;-2.83;97.48;100690.97;4994348;28;20441;-50
2022/03/03 01:53:43;;;;;;;1.23;1.23;;;;;;;-2.94;97.42;100691.47;4996824;28;20527;-50
2022/03/03 01:56:10;;;;;;;0.20;0.10;;;;;;;-2.73;98.22;100681.75;4996569;28;20450;-50
2022/03/03 01:58:37;;;;;;;0.20;0.10;;;;;;;-2.75;98.92;100679.06;4996606;28;20477;-50
2022/03/03 02:01:05;;;;;;;0.20;0.10;;;;;;;-2.80;96.72;100669.38;4997015;28;20457;-50
2022/03/03 02:03:32;;;;;;;0.20;0.10;;;;;;;-2.78;97.42;100667.69;4996638;28;20548;-50
2022/03/03 02:05:58;;;;;;;0.20;0.10;;;;;;;-2.87;97.42;100660.53;4996750;28;20445;-50
2022/03/03 02:08:25;;;;;;;0.33;0.30;;;;;;;-2.90;97.19;100654.31;4996370;28;21070;-50
2022/03/03 02:10:52;;;;;;;7.50;1.23;;;;;;;-3.03;97.49;100672.13;4996339;28;20469;-50
2022/03/03 02:13:19;;;;;;;0.20;0.10;;;;;;;-2.94;97.53;100676.75;4996302;28;20527;-50
2022/03/03 02:15:54;;;;;;;0.20;0.10;;;;;;;-2.82;97.20;100669.34;4996341;28;20481;-50
2022/03/03 02:18:21;;;;;;;0.20;0.10;;;;;;;-2.79;97.18;100672.03;4996199;28;20838;-51
2022/03/03 02:20:48;;;;;;;0.20;0.10;;;;;;;-2.81;96.64;100665.91;4996218;28;20508;-50
2022/03/03 02:23:15;;;;;;;0.20;0.10;;;;;;;-2.81;96.78;100668.50;4995918;28;21058;-50
2022/03/03 02:25:42;;;;;;;0.20;0.10;;;;;;;-2.95;96.21;100667.19;4995978;28;20457;-50
2022/03/03 02:28:13;;;;;;;0.30;0.30;;;;;;;-3.00;97.23;100674.84;4995903;28;20445;-50
2022/03/03 02:30:39;;;;;;;2.73;2.10;;;;;;;-3.30;98.25;100666.91;4996189;28;20473;-50
2022/03/03 02:33:06;;;;;;;0.20;0.10;;;;;;;-3.21;99.41;100673.25;4996006;28;20458;-50
2022/03/03 02:35:33;;;;;;;0.20;0.10;;;;;;;-3.24;98.64;100665.38;4995827;28;20477;-50
2022/03/03 02:37:59;;;;;;;0.20;0.10;;;;;;;-3.01;98.98;100654.00;4996003;28;20477;-50
2022/03/03 02:40:26;;;;;;;0.20;0.10;;;;;;;-3.03;98.58;100651.31;4995844;28;20477;-50
2022/03/03 02:42:54;;;;;;;0.20;0.10;;;;;;;-2.93;97.83;100646.44;4995472;28;20532;-50
2022/03/03 02:45:21;;;;;;;0.30;0.20;;;;;;;-2.82;97.42;100647.66;4995587;28;20450;-50
2022/03/03 02:47:49;;;;;;;0.20;0.10;;;;;;;-3.01;97.42;100638.41;4996089;28;20454;-50
2022/03/03 02:50:19;;;;;;;0.47;0.47;;;;;;;-3.02;97.75;100632.28;4994085;28;20481;-50
2022/03/03 02:52:45;;;;;;;0.33;0.30;;;;;;;-3.18;97.36;100631.75;4995489;28;20457;-50
2022/03/03 02:55:12;;;;;;;0.20;0.10;;;;;;;-3.29;97.68;100632.31;4995353;28;20454;-51
2022/03/03 02:57:53;;;;;;;0.20;0.10;;;;;;;-3.26;98.15;100630.66;4995626;28;20460;-50
2022/03/03 03:00:27;;;;;;;0.20;0.20;;;;;;;-3.47;98.81;100625.63;4995383;28;20469;-50
2022/03/03 03:02:54;;;;;;;0.20;0.17;;;;;;;-3.49;98.70;100622.09;4994645;28;20499;-50
2022/03/03 03:05:21;;;;;;;0.20;0.10;;;;;;;-3.41;99.22;100628.44;4995465;28;20450;-50
2022/03/03 03:07:48;;;;;;;0.20;0.10;;;;;;;-3.31;98.55;100628.75;4995355;28;20512;-50
2022/03/03 03:10:15;;;;;;;0.20;0.10;;;;;;;-3.28;98.01;100628.00;4995581;28;20528;-50
2022/03/03 03:12:42;;;;;;;0.20;0.13;;;;;;;-3.44;98.15;100638.72;4994978;28;20453;-50
2022/03/03 03:15:09;;;;;;;0.20;0.10;;;;;;;-3.56;99.39;100623.63;4995457;28;20453;-50
2022/03/03 03:17:36;;;;;;;0.20;0.20;;;;;;;-3.35;100.00;100631.22;4995334;28;20516;-50
2022/03/03 03:20:04;;;;;;;0.77;0.77;;;;;;;-3.48;99.93;100631.66;4995538;28;20983;-51
2022/03/03 03:22:30;;;;;;;0.20;0.10;;;;;;;-3.46;99.23;100625.66;4995049;28;21010;-49
2022/03/03 03:24:57;;;;;;;0.20;0.10;;;;;;;-3.45;99.02;100621.34;4995617;28;20489;-50
2022/03/03 03:27:24;;;;;;;0.20;0.10;;;;;;;-3.25;98.13;100622.91;4995262;28;20464;-50
2022/03/03 03:29:51;;;;;;;0.20;0.10;;;;;;;-3.48;97.91;100619.53;4995436;28;20478;-50
2022/03/03 03:32:17;;;;;;;0.20;0.10;;;;;;;-3.48;98.93;100614.34;4995133;28;20565;-50
2022/03/03 03:34:44;;;;;;;0.20;0.10;;;;;;;-3.47;99.10;100608.31;4995103;28;20488;-50
2022/03/03 03:37:10;;;;;;;0.20;0.20;;;;;;;-3.42;98.47;100609.38;4994524;28;20484;-50
2022/03/03 03:39:37;;;;;;;0.20;0.10;;;;;;;-3.57;97.80;100601.94;4994943;28;20505;-50
2022/03/03 03:42:04;;;;;;;0.20;0.20;;;;;;;-3.63;98.26;100606.06;4994598;28;20867;-50
2022/03/03 03:44:31;;;;;;;0.40;0.40;;;;;;;-3.57;98.42;100603.66;4994765;28;20915;-50
2022/03/03 03:46:57;;;;;;;2.30;2.10;;;;;;;-3.53;98.77;100602.06;4994571;28;20456;-50
2022/03/03 03:49:24;;;;;;;0.20;0.10;;;;;;;-3.52;98.40;100602.09;4994211;28;20830;-50
2022/03/03 03:51:51;;;;;;;0.20;0.10;;;;;;;-3.55;97.41;100599.41;4994378;28;20936;-50
2022/03/03 03:54:17;;;;;;;0.20;0.10;;;;;;;-3.54;97.65;100600.28;4994581;28;20445;-50
2022/03/03 03:56:44;;;;;;;0.20;0.10;;;;;;;-3.89;97.71;100603.47;4994209;28;20454;-50
2022/03/03 03:59:11;;;;;;;0.20;0.10;;;;;;;-3.87;97.66;100596.59;4994408;28;20474;-50
2022/03/03 04:01:37;;;;;;;0.40;0.40;;;;;;;-3.88;99.01;100600.03;4992909;28;20943;-50
2022/03/03 04:04:05;;;;;;;0.20;0.10;;;;;;;-3.76;98.79;100604.75;4993928;28;20486;-50
2022/03/03 04:06:32;;;;;;;0.60;0.60;;;;;;;-3.63;98.52;100599.16;4994126;28;20450;-51
2022/03/03 04:08:59;;;;;;;0.20;0.10;;;;;;;-3.73;97.95;100601.38;4994102;28;20473;-50
2022/03/03 04:11:26;;;;;;;0.20;0.10;;;;;;;-3.87;97.16;100595.72;4994249;28;20473;-50
2022/03/03 04:13:52;;;;;;;0.20;0.10;;;;;;;-3.98;98.39;100599.66;4993418;28;20931;-49
2022/03/03 04:16:19;;;;;;;0.20;0.10;;;;;;;-3.97;98.28;100604.03;4993332;28;20450;-50
2022/03/03 04:18:46;;;;;;;0.20;0.10;;;;;;;-4.00;98.72;100598.72;4993606;28;20739;-50
2022/03/03 04:21:12;;;;;;;0.73;0.73;;;;;;;-3.80;99.18;100604.63;4994015;28;20453;-50
2022/03/03 04:23:39;;;;;;;1.50;1.10;;;;;;;-3.97;97.97;100597.13;4993740;28;20489;-50
2022/03/03 04:26:05;;;;;;;0.20;0.10;;;;;;;-3.77;98.99;100596.91;4993596;28;20449;-50
2022/03/03 04:28:32;;;;;;;0.20;0.20;;;;;;;-3.69;98.31;100604.16;4993769;28;20835;-50
2022/03/03 04:30:59;;;;;;;0.40;0.40;;;;;;;-3.79;97.79;100599.47;4993397;28;20469;-50
2022/03/03 04:33:26;;;;;;;0.20;0.20;;;;;;;-3.85;98.15;100593.16;4993546;28;20938;-50
2022/03/03 04:35:52;;;;;;;0.20;0.10;;;;;;;-3.93;98.12;100595.53;4994054;28;20453;-50
2022/03/03 04:38:19;;;;;;;0.20;0.10;;;;;;;-3.95;98.45;100595.47;4993506;28;20449;-49
2022/03/03 04:40:45;;;;;;;0.20;0.10;;;;;;;-3.94;98.05;100592.03;4993309;28;20982;-51
2022/03/03 04:43:12;;;;;;;0.20;0.10;;;;;;;-3.99;99.18;100590.97;4993295;28;20869;-50
2022/03/03 04:45:39;;;;;;;0.20;0.10;;;;;;;-3.93;98.64;100598.13;4993317;28;20453;-50
2022/03/03 04:48:05;;;;;;;0.20;0.20;;;;;;;-3.97;98.63;100597.13;4993414;28;20453;-50
2022/03/03 04:50:32;;;;;;;0.30;0.20;;;;;;;-3.99;98.61;100583.19;4980341;28;20488;-49
2022/03/03 04:52:59;;;;;;;0.20;0.10;;;;;;;-4.06;97.78;100591.63;4993542;28;20446;-50
2022/03/03 04:55:25;;;;;;;0.20;0.10;;;;;;;-4.10;98.82;100594.06;4993324;28;20500;-51
2022/03/03 04:57:52;;;;;;;0.20;0.10;;;;;;;-3.97;99.37;100591.06;4993102;28;20508;-51
2022/03/03 05:00:19;;;;;;;0.20;0.10;;;;;;;-4.02;98.95;100585.69;4992960;28;20531;-50
2022/03/03 05:02:45;;;;;;;0.20;0.10;;;;;;;-4.08;98.88;100588.09;4988993;28;20500;-49
2022/03/03 05:05:13;;;;;;;0.20;0.10;;;;;;;-4.22;98.78;100581.53;4992135;28;20917;-49
2022/03/03 05:07:39;;;;;;;0.20;0.10;;;;;;;-4.24;99.62;100578.91;4992960;28;20518;-53
2022/03/03 05:10:07;;;;;;;0.20;0.20;;;;;;;-4.20;100.00;100585.06;4992976;28;20861;-53
2022/03/03 05:12:34;;;;;;;0.20;0.10;;;;;;;-4.11;99.62;100566.31;4992925;28;20457;-53
2022/03/03 05:15:01;;;;;;;0.20;0.10;;;;;;;-4.18;99.14;100570.44;4992672;28;20460;-53
2022/03/03 05:17:28;;;;;;;0.20;0.10;;;;;;;-4.20;99.39;100569.50;4992809;28;20457;-53
2022/03/03 05:19:55;;;;;;;0.20;0.10;;;;;;;-4.13;99.21;100568.84;4993064;28;20469;-53
2022/03/03 05:22:22;;;;;;;0.30;0.20;;;;;;;-4.13;98.93;100567.97;4992663;28;20453;-53
2022/03/03 05:24:53;;;;;;;0.20;0.10;;;;;;;-4.19;98.88;100566.94;4992801;28;20959;-53
2022/03/03 05:27:20;;;;;;;0.20;0.10;;;;;;;-4.16;98.99;100560.97;4992236;28;20456;-53
2022/03/03 05:29:47;;;;;;;0.20;0.10;;;;;;;-4.05;99.07;100562.22;4992570;28;20532;-53
2022/03/03 05:32:13;;;;;;;0.20;0.10;;;;;;;-4.07;98.59;100552.63;4992796;28;20481;-53
2022/03/03 05:34:40;;;;;;;0.20;0.10;;;;;;;-3.61;99.25;100548.13;4993195;28;20488;-51
2022/03/03 05:37:07;;;;;;;0.20;0.20;;;;;;;-3.59;96.47;100546.47;4989966;28;20580;-51
2022/03/03 05:39:37;;;;;;;0.83;0.80;;;;;;;-3.70;98.45;100549.53;4992502;28;20999;-52
2022/03/03 05:42:04;;;;;;;0.20;0.10;;;;;;;-3.62;99.20;100541.16;4992424;28;20453;-51
2022/03/03 05:44:31;;;;;;;0.20;0.20;;;;;;;-3.65;98.27;100542.78;4992723;28;20500;-51
2022/03/03 05:46:59;;;;;;;0.20;0.13;;;;;;;-3.70;98.91;100552.13;4992483;28;20446;-51
2022/03/03 05:49:26;;;;;;;0.30;0.30;;;;;;;-3.54;100.00;100550.94;4992529;28;20535;-51
2022/03/03 05:51:53;;;;;;;0.20;0.17;;;;;;;-3.46;100.00;100544.25;4991334;28;20454;-51
2022/03/03 05:54:20;;;;;;;0.20;0.10;;;;;;;-3.39;99.84;100544.50;4992444;28;20998;-52
2022/03/03 05:56:48;;;;;;;3.70;0.97;;;;;;;-3.43;99.53;100539.16;4992653;28;20897;-52
2022/03/03 05:59:15;;;;;;;0.20;0.10;;;;;;;-3.59;98.78;100548.16;4992666;28;20476;-52
2022/03/03 06:01:43;;;;;;;0.20;0.10;;;;;;;-3.68;99.16;100556.56;4992279;28;20461;-51
2022/03/03 06:04:13;;;;;;;0.20;0.10;;;;;;;-3.64;99.58;100554.94;4992431;28;20501;-51
2022/03/03 06:06:50;;;;;;;0.87;0.87;;;;;;;-3.77;99.95;100556.25;4992391;28;20880;-51
2022/03/03 06:09:22;;;;;;;0.30;0.30;;;;;;;-3.56;99.76;100556.09;4992344;28;20500;-51
2022/03/03 06:11:54;;;;;;;0.67;0.67;;;;;;;-3.59;100.00;100555.97;4992270;28;20449;-51
2022/03/03 06:14:35;;;;;;;0.20;0.10;;;;;;;-3.39;99.88;100551.41;4992334;28;20446;-51
2022/03/03 06:17:02;;;;;;;0.20;0.10;;;;;;;-3.53;99.65;100552.69;4992425;28;21033;-51
2022/03/03 06:19:30;;;;;;;0.20;0.10;;;;;;;-3.54;99.43;100556.13;4992234;28;20501;-51
2022/03/03 06:21:56;;;;;;;0.20;0.10;;;;;;;-3.49;99.19;100557.16;4992532;28;20511;-51
2022/03/03 06:24:23;;;;;;;0.20;0.10;;;;;;;-3.41;99.59;100558.28;4992375;28;20896;-51
2022/03/03 06:26:50;;;;;;;0.20;0.10;;;;;;;-3.30;98.99;100552.56;4991256;28;20465;-52
2022/03/03 06:29:17;;;;;;;0.20;0.10;;;;;;;-3.37;98.61;100550.63;4992264;28;20500;-51
2022/03/03 06:31:44;;;;;;;0.20;0.10;;;;;;;-3.36;97.75;100552.38;4992136;28;20806;-51
2022/03/03 06:34:11;;;;;;;0.20;0.10;;;;;;;-3.35;98.33;100561.06;4991949;28;20453;-51
2022/03/03 06:36:37;;;;;;;0.20;0.10;;;;;;;-3.50;98.08;100561.47;4992444;28;20492;-51
2022/03/03 06:39:04;;;;;;;0.20;0.10;;;;;;;-3.42;97.79;100561.72;4981845;28;20982;-51
2022/03/03 06:41:31;;;;;;;0.20;0.10;;;;;;;-3.57;98.34;100564.69;4995793;28;20748;-53
2022/03/03 06:43:58;;;;;;;0.20;0.10;;;;;;;-3.45;98.57;100565.09;4994640;28;20998;-51
2022/03/03 06:46:25;;;;;;;0.20;0.10;;;;;;;-3.34;99.13;100563.72;4995611;28;20459;-51
2022/03/03 06:48:52;;;;;;;0.20;0.10;;;;;;;-3.12;98.52;100567.88;4995764;28;20492;-52
2022/03/03 06:51:22;;;;;;;0.20;0.10;;;;;;;-3.12;97.78;100557.47;4995553;28;20508;-51
2022/03/03 06:53:55;;;;;;;0.20;0.10;;;;;;;-3.11;97.96;100548.84;4995899;28;20507;-51
2022/03/03 06:56:23;;;;;;;0.20;0.10;;;;;;;-2.99;98.80;100556.13;4995492;28;20480;-52
2022/03/03 06:58:52;;;;;;;0.20;0.10;;;;;;;-2.90;97.78;100553.78;4995285;28;20810;-51
2022/03/03 07:01:21;;;;;;;0.20;0.10;;;;;;;-2.92;99.44;100551.97;4995219;28;20511;-50
2022/03/03 07:03:49;;;;;;;0.20;0.10;;;;;;;-2.78;99.85;100561.06;4995597;28;20485;-51
2022/03/03 07:06:15;;;;;;;0.20;0.10;;;;;;;-2.78;100.00;100563.66;4995390;28;20460;-51
2022/03/03 07:08:43;;;;;;;0.20;0.10;;;;;;;-2.59;100.00;100565.97;4995373;28;20889;-53
2022/03/03 07:11:11;;;;;;;0.20;0.20;;;;;;;-2.58;99.84;100556.47;4995270;28;20489;-53
2022/03/03 07:13:38;;;;;;;0.20;0.20;;;;;;;-2.55;99.44;100557.41;4995220;28;20453;-52
2022/03/03 07:16:42;;;;;;;0.43;0.43;;;;;;;-2.29;100.00;100560.75;4995271;28;20457;-52
2022/03/03 07:19:37;;;;;;;5.70;2.63;;;;;;;-2.15;99.73;100568.94;4995020;28;20891;-53
2022/03/03 07:22:13;;;;;;;0.53;0.53;;;;;;;-2.04;99.47;100558.81;4994073;28;20465;-53
2022/03/03 07:24:45;;;;;;;0.23;0.20;;;;;;;-1.96;99.76;100571.16;4983350;28;20940;-53
2022/03/03 07:27:19;;;;;;;0.20;0.10;;;;;;;-1.77;98.92;100553.44;4995122;28;20453;-53
2022/03/03 07:30:09;;;;;;;0.20;0.10;;;;;;;-1.79;98.69;100563.78;4994939;28;20994;-53
2022/03/03 07:32:59;;;;;;;0.57;0.57;;;;;;;-1.77;98.51;100576.88;4995043;28;20876;-53
2022/03/03 07:35:26;;;;;;;0.30;0.20;;;;;;;-1.74;98.61;100577.81;4994669;28;20840;-53
2022/03/03 07:37:57;;;;;;;0.20;0.10;;;;;;;-1.61;97.77;100572.06;4994957;28;20449;-53
2022/03/03 07:40:27;;;;;;;0.20;0.10;;;;;;;-1.45;97.91;100564.63;4994807;28;20465;-53
2022/03/03 07:42:55;;;;;;;0.20;0.10;;;;;;;-1.52;97.92;100564.47;4994677;28;20511;-53
2022/03/03 07:45:22;;;;;;;0.20;0.20;;;;;;;-1.47;98.04;100576.75;4994548;28;20948;-53
2022/03/03 07:47:51;;;;;;;0.20;0.20;;;;;;;-1.37;97.90;100557.84;4994701;28;20453;-53
2022/03/03 07:50:17;;;;;;;0.20;0.10;;;;;;;-1.21;97.77;100560.00;4995927;28;20493;-54
2022/03/03 07:52:50;;;;;;;0.20;0.10;;;;;;;-1.20;97.69;100566.97;4994642;28;20449;-53
2022/03/03 07:55:17;;;;;;;5.67;4.57;;;;;;;-1.07;97.22;100569.03;4994322;28;20442;-53
2022/03/03 07:58:00;;;;;;;0.20;0.17;;;;;;;-0.91;97.07;100557.19;4994483;28;20550;-54
2022/03/03 08:00:32;;;;;;;1.53;1.43;;;;;;;-0.77;97.09;100560.97;4984055;28;20975;-54
2022/03/03 08:03:04;;;;;;;0.20;0.10;;;;;;;-0.87;96.49;100560.75;4994435;28;20536;-54
2022/03/03 08:05:31;;;;;;;0.20;0.10;;;;;;;-0.81;96.56;100558.28;4994336;28;20998;-54
2022/03/03 08:08:02;;;;;;;0.20;0.10;;;;;;;-0.72;97.48;100564.56;4993933;28;20454;-53
2022/03/03 08:10:31;;;;;;;0.20;0.20;;;;;;;-0.73;96.72;100562.81;4994858;28;20520;-54
2022/03/03 08:12:59;;;;;;;0.20;0.10;;;;;;;-0.58;96.44;100567.47;4994204;28;20820;-53
2022/03/03 08:15:26;;;;;;;0.20;0.10;;;;;;;-0.53;96.03;100565.84;4994141;28;20826;-54
2022/03/03 08:17:54;;;;;;;0.20;0.10;;;;;;;-0.42;95.65;100560.81;4994021;28;20449;-53
2022/03/03 08:20:22;;;;;;;0.20;0.10;;;;;;;-0.25;95.08;100574.22;4993757;28;20476;-53
2022/03/03 08:22:49;;;;;;;0.30;0.20;;;;;;;-0.11;95.14;100572.75;4981291;28;20460;-54
2022/03/03 08:25:17;;;;;;;0.70;0.67;;;;;;;-0.02;94.25;100558.13;4994002;28;20552;-54
2022/03/03 08:27:44;;;;;;;0.20;0.10;;;;;;;-0.01;94.75;100559.00;4993901;28;20449;-54
2022/03/03 08:30:12;;;;;;;0.20;0.10;;;;;;;0.16;94.00;100557.59;4993723;28;21040;-54
2022/03/03 08:32:41;;;;;;;0.20;0.10;;;;;;;0.55;92.24;100565.22;4993825;28;20453;-53
2022/03/03 08:35:14;;;;;;;1.63;1.63;;;;;;;0.45;92.92;100568.53;4993754;28;20512;-54
2022/03/03 08:38:01;;;;;;;0.20;0.10;;;;;;;0.45;93.02;100571.16;4993761;28;20492;-54
2022/03/03 08:40:29;;;;;;;3.90;2.00;;;;;;;0.85;91.38;100563.94;4993640;28;20465;-54
2022/03/03 08:43:00;;;;;;;1.50;1.40;;;;;;;1.03;91.58;100558.97;4993513;28;20512;-52
2022/03/03 08:45:31;;;;;;;13.13;2.10;;;;;;;0.88;92.26;100577.94;4993343;28;20520;-51
2022/03/03 08:48:10;;;;;;;0.20;0.10;;;;;;;1.10;90.47;100573.03;4993804;28;20508;-52
2022/03/03 08:50:40;;;;;;;0.20;0.10;;;;;;;1.30;91.80;100571.56;4992241;28;20532;-52
2022/03/03 08:53:08;;;;;;;0.53;0.53;;;;;;;1.28;92.23;100572.41;4993247;28;20512;-52
2022/03/03 08:55:41;;;;;;;0.30;0.23;;;;;;;1.33;92.30;100573.31;4993250;28;20877;-52
2022/03/03 09:01:14;;;;;;;0.20;0.10;;;;;;;1.59;92.48;100576.28;5227845;22;20512;-52
2022/03/03 09:03:44;;;;;;;0.30;0.20;;;;;;;1.78;90.55;100565.13;4993134;28;20517;-52
2022/03/03 09:06:17;;;;;;;0.63;0.63;;;;;;;2.10;88.46;100565.50;4992905;28;20939;-53
2022/03/03 09:08:47;;;;;;;0.20;0.10;;;;;;;2.18;88.47;100565.56;4993164;28;20481;-52
2022/03/03 09:11:21;;;;;;;0.20;0.17;;;;;;;2.12;88.27;100561.16;4992937;28;20522;-53
2022/03/03 09:13:48;;;;;;;0.20;0.10;;;;;;;2.31;87.03;100549.97;4993629;28;20448;-51
2022/03/03 09:16:17;;;;;;;0.20;0.13;;;;;;;2.69;85.98;100552.03;4992041;28;20528;-52
2022/03/03 09:18:45;;;;;;;0.50;0.50;;;;;;;2.64;85.32;100559.88;4993093;28;20456;-50
2022/03/03 09:21:14;;;;;;;0.20;0.10;;;;;;;2.99;83.99;100556.59;4992004;28;20504;-49
2022/03/03 09:23:42;;;;;;;0.30;0.20;;;;;;;2.95;84.14;100554.84;4992769;28;21006;-52
2022/03/03 09:26:09;;;;;;;3.90;1.03;;;;;;;3.24;83.23;100550.63;4980581;28;20511;-50
2022/03/03 09:28:36;;;;;;;0.40;0.40;;;;;;;3.49;82.76;100542.88;4992861;28;20947;-50
2022/03/03 09:31:02;;;;;;;0.20;0.20;;;;;;;3.50;80.88;100537.63;4992774;28;20544;-50
2022/03/03 09:33:29;;;;;;;0.30;0.30;;;;;;;3.71;81.26;100547.34;4992695;28;20460;-50
2022/03/03 09:35:56;;;;;;;0.20;0.10;;;;;;;3.73;80.43;100542.97;4992975;28;20449;-51
2022/03/03 09:38:22;;;;;;;0.20;0.20;;;;;;;3.86;79.88;100542.13;4992896;28;20450;-49
2022/03/03 09:40:49;;;;;;;0.63;0.63;;;;;;;3.92;80.67;100537.75;4992916;28;20512;-49
2022/03/03 09:43:16;;;;;;;0.30;0.20;;;;;;;4.17;80.58;100534.28;4992642;28;20453;-49
2022/03/03 09:45:43;;;;;;;0.43;0.43;;;;;;;4.35;79.45;100531.66;4992683;28;20539;-49
2022/03/03 09:48:15;;;;;;;0.20;0.10;;;;;;;4.39;79.26;100530.81;4993041;28;20449;-50
2022/03/03 09:50:46;;;;;;;0.60;0.60;;;;;;;4.70;78.78;100528.16;4992655;28;20469;-50
2022/03/03 09:53:16;;;;;;;0.30;0.30;;;;;;;4.71;79.57;100522.91;4992831;28;20484;-50
2022/03/03 09:55:45;;;;;;;0.20;0.20;;;;;;;4.86;78.15;100527.25;4992873;28;20446;-52
2022/03/03 09:58:13;;;;;;;0.20;0.10;;;;;;;4.90;78.25;100522.84;4992681;28;20457;-50
2022/03/03 10:00:41;;;;;;;0.20;0.10;;;;;;;4.80;77.66;100519.38;4992420;28;21069;-50
2022/03/03 10:03:14;;;;;;;0.20;0.10;;;;;;;4.95;78.04;100515.84;4992734;28;20512;-51
2022/03/03 10:05:51;;;;;;;0.30;0.30;;;;;;;5.25;77.33;100506.97;4992845;28;20493;-51
2022/03/03 10:08:24;;;;;;;0.30;0.20;;;;;;;5.31;76.16;100515.72;4992664;28;20870;-51
2022/03/03 10:10:53;;;;;;;0.20;0.10;;;;;;;5.60;74.77;100507.69;4991091;28;20887;-51
2022/03/03 10:13:20;;;;;;;0.30;0.20;;;;;;;5.73;73.13;100505.00;4995721;28;20959;-52
2022/03/03 10:16:02;;;;;;;0.20;0.10;;;;;;;5.73;71.60;100507.63;4996183;28;20460;-51
2022/03/03 10:18:29;;;;;;;2.20;1.07;;;;;;;5.78;72.24;100503.22;4996361;28;20445;-50
2022/03/03 10:20:58;;;;;;;0.20;0.10;;;;;;;5.46;72.89;100506.00;4996278;28;20887;-49
2022/03/03 10:23:26;;;;;;;0.53;0.53;;;;;;;5.72;71.63;100497.97;4996349;28;20476;-50
2022/03/03 10:25:55;;;;;;;1.03;1.03;;;;;;;5.88;70.97;100491.72;4996149;28;20540;-51
2022/03/03 10:28:28;;;;;;;0.30;0.20;;;;;;;6.23;69.95;100499.44;4996402;28;20503;-49
2022/03/03 10:31:07;;;;;;;0.83;0.83;;;;;;;6.30;68.57;100500.25;4996650;28;20472;-50
2022/03/03 10:33:44;;;;;;;2.40;2.30;;;;;;;6.51;67.55;100500.94;4996019;28;20445;-50
2022/03/03 10:36:22;;;;;;;0.30;0.30;;;;;;;6.75;67.18;100493.69;4996244;28;20477;-50
2022/03/03 10:38:58;;;;;;;0.60;0.60;;;;;;;6.63;65.81;100485.91;4995075;28;20445;-51
2022/03/03 10:41:27;;;;;;;0.20;0.20;;;;;;;6.83;65.83;100484.78;4996843;28;20814;-50
2022/03/03 10:43:54;;;;;;;0.93;0.93;;;;;;;6.64;66.46;100474.44;4996009;28;20958;-49
2022/03/03 10:46:21;;;;;;;0.30;0.30;;;;;;;6.57;65.82;100473.59;4995931;28;20516;-49
2022/03/03 10:48:48;;;;;;;0.40;0.40;;;;;;;6.80;65.93;100476.03;4996303;28;20540;-52
2022/03/03 10:51:16;;;;;;;0.20;0.20;;;;;;;6.86;65.54;100460.13;4995927;28;20453;-53
2022/03/03 10:53:43;;;;;;;0.30;0.20;;;;;;;7.01;66.45;100459.09;4995804;28;20464;-54
2022/03/03 10:56:14;;;;;;;0.40;0.40;;;;;;;7.05;65.74;100466.06;4996063;28;20449;-54
2022/03/03 10:58:57;;;;;;;0.73;0.70;;;;;;;6.76;63.30;100456.69;4995656;28;20449;-52
2022/03/03 11:01:29;;;;;;;0.20;0.20;;;;;;;7.04;64.24;100453.75;4995687;28;20526;-52
2022/03/03 11:03:59;;;;;;;4.87;1.60;;;;;;;7.25;64.56;100457.91;4995699;28;20456;-53
2022/03/03 11:06:33;;;;;;;0.97;0.50;;;;;;;7.29;63.34;100460.50;4995647;28;20852;-53
2022/03/03 11:09:00;;;;;;;0.30;0.20;;;;;;;7.49;63.93;100465.53;4995689;28;21020;-51
2022/03/03 11:11:26;;;;;;;1.87;1.70;;;;;;;7.53;62.62;100464.56;4995821;28;20449;-49
2022/03/03 11:13:54;;;;;;;0.67;0.67;;;;;;;7.58;62.35;100460.13;4995748;28;20481;-50
2022/03/03 11:16:23;;;;;;;0.50;0.47;;;;;;;7.58;62.52;100461.88;4995218;28;20943;-50
2022/03/03 11:18:50;;;;;;;0.53;0.53;;;;;;;7.72;62.36;100455.50;4995374;28;20453;-50
2022/03/03 11:21:16;;;;;;;2.23;1.03;;;;;;;7.57;62.06;100452.22;4995293;28;21006;-49
2022/03/03 11:23:56;;;;;;;0.30;0.20;;;;;;;7.55;61.54;100451.34;4994508;28;20472;-50
2022/03/03 11:26:34;;;;;;;0.30;0.20;;;;;;;7.61;61.17;100449.50;4983690;28;20508;-49
2022/03/03 11:29:15;;;;;;;0.30;0.20;;;;;;;7.82;60.46;100450.09;4995135;28;20504;-49
2022/03/03 11:31:44;;;;;;;0.83;0.80;;;;;;;7.71;61.71;100450.25;4995137;28;20477;-50
2022/03/03 11:34:30;;;;;;;0.40;0.20;;;;;;;7.58;62.02;100452.19;4994669;28;20454;-50
2022/03/03 11:37:06;;;;;;;2.43;2.23;;;;;;;7.99;61.26;100440.13;4994897;28;20441;-50